createdAt,value
2023-01-17T00:02:31.921Z,3.78
2023-01-17T00:07:53.241Z,2.45
2023-01-17T00:13:00.523Z,2.00
2023-01-17T00:18:02.516Z,3.33
2023-01-17T00:23:42.625Z,2.78
2023-01-17T00:28:45.445Z,3.40
2023-01-17T00:33:47.600Z,3.10
2023-01-17T00:38:49.728Z,1.08
2023-01-17T00:44:10.195Z,3.85
2023-01-17T00:49:30.773Z,3.00
2023-01-17T00:54:51.811Z,1.50
2023-01-17T01:05:33.821Z,2.45
2023-01-17T01:10:54.565Z,4.60
2023-01-17T01:16:19.019Z,3.72
2023-01-17T01:21:39.903Z,3.33
2023-01-17T01:27:00.548Z,3.83
2023-01-17T01:32:20.865Z,2.70
2023-01-17T01:37:22.859Z,4.53
2023-01-17T01:42:24.918Z,5.68
2023-01-17T01:47:31.718Z,5.25
2023-01-17T01:52:36.707Z,4.50
2023-01-17T01:57:45.850Z,3.92
2023-01-17T02:02:49.808Z,4.47
2023-01-17T02:07:58.720Z,3.47
2023-01-17T02:13:02.277Z,2.80
2023-01-17T02:18:13.472Z,2.63
2023-01-17T02:23:37.051Z,6.03
2023-01-17T02:28:58.015Z,3.03
2023-01-17T02:34:21.482Z,2.88
2023-01-17T02:39:31.812Z,4.22
2023-01-17T02:44:43.691Z,3.83
2023-01-17T02:49:45.830Z,8.00
2023-01-17T02:55:01.943Z,4.80
2023-01-17T03:00:49.124Z,6.00
2023-01-17T03:06:11.663Z,3.53
2023-01-17T03:11:14.757Z,5.40
2023-01-17T03:16:21.091Z,2.38
2023-01-17T03:21:24.090Z,1.92
2023-01-17T03:26:26.124Z,5.15
2023-01-17T03:31:28.156Z,3.83
2023-01-17T03:36:30.221Z,6.75
2023-01-17T03:41:32.378Z,3.75
2023-01-17T03:46:34.438Z,4.55
2023-01-17T03:51:36.434Z,5.13
2023-01-17T03:56:38.404Z,5.20
2023-01-17T04:01:40.469Z,3.83
2023-01-17T04:06:42.667Z,6.18
2023-01-17T04:11:44.838Z,4.28
2023-01-17T04:16:46.879Z,3.75
2023-01-17T04:21:49.226Z,2.92
2023-01-17T04:26:51.397Z,9.90
2023-01-17T04:31:53.716Z,5.93
2023-01-17T04:36:56.032Z,9.23
2023-01-17T04:41:58.280Z,9.43
2023-01-17T04:47:01.879Z,10.27
2023-01-17T04:52:04.083Z,14.77
2023-01-17T04:57:06.216Z,13.60
2023-01-17T05:02:08.462Z,14.07
2023-01-17T05:07:10.526Z,12.07
2023-01-17T05:12:12.529Z,12.55
2023-01-17T05:17:14.665Z,11.00
2023-01-17T05:22:16.795Z,15.25
2023-01-17T05:27:18.866Z,16.17
2023-01-17T05:32:20.979Z,16.98
2023-01-17T05:37:23.048Z,20.02
2023-01-17T05:42:25.223Z,17.65
2023-01-17T05:47:27.262Z,16.95
2023-01-17T05:52:29.388Z,31.10
2023-01-17T05:57:31.528Z,18.45
2023-01-17T06:02:33.526Z,18.10
2023-01-17T06:07:35.565Z,26.27
2023-01-17T06:12:37.705Z,21.27
2023-01-17T06:17:39.983Z,17.52
2023-01-17T06:22:42.030Z,22.08
2023-01-17T06:27:44.133Z,19.60
2023-01-17T06:32:52.429Z,24.40
2023-01-17T06:37:55.596Z,20.67
2023-01-17T06:43:01.745Z,20.15
2023-01-17T06:48:05.243Z,17.25
2023-01-17T06:53:07.681Z,22.30
2023-01-17T06:58:10.225Z,18.55
2023-01-17T07:03:24.361Z,19.65
2023-01-17T07:08:26.529Z,18.05
2023-01-17T07:13:29.410Z,20.30
2023-01-17T07:18:32.437Z,18.83
2023-01-17T07:23:34.424Z,18.45
2023-01-17T07:28:36.461Z,16.42
2023-01-17T07:33:38.665Z,17.83
2023-01-17T07:38:43.799Z,18.98
2023-01-17T07:43:46.081Z,22.73
2023-01-17T07:48:48.164Z,22.13
2023-01-17T07:53:50.326Z,24.58
2023-01-17T07:58:52.340Z,19.60
2023-01-17T08:03:55.058Z,22.45
2023-01-17T08:08:59.348Z,21.10
2023-01-17T08:14:01.403Z,20.40
2023-01-17T08:19:03.434Z,21.85
2023-01-17T08:24:05.773Z,21.75
2023-01-17T08:29:08.105Z,23.55
2023-01-17T08:34:10.215Z,20.45
2023-01-17T08:39:15.190Z,20.90
2023-01-17T08:44:18.607Z,20.75
2023-01-17T08:49:20.645Z,18.48
2023-01-17T08:54:22.997Z,20.63
2023-01-17T08:59:25.269Z,24.88
2023-01-17T09:04:27.679Z,20.75
2023-01-17T09:09:29.895Z,22.35
2023-01-17T09:14:32.110Z,20.70
2023-01-17T09:19:35.308Z,22.30
2023-01-17T09:24:37.531Z,22.20
2023-01-17T09:29:39.602Z,23.17
2023-01-17T09:34:41.586Z,22.00
2023-01-17T09:39:43.634Z,22.52
2023-01-17T09:44:53.601Z,19.77
2023-01-17T09:49:59.459Z,24.33
2023-01-17T09:55:02.576Z,23.83
2023-01-17T10:00:26.489Z,20.23
2023-01-17T10:05:37.924Z,22.52
2023-01-17T10:11:09.330Z,17.08
2023-01-17T10:16:20.537Z,20.23
2023-01-17T10:22:04.273Z,18.45
2023-01-17T10:27:19.785Z,17.60
2023-01-17T10:32:29.295Z,17.73
2023-01-17T10:37:41.693Z,16.98
2023-01-17T10:42:57.445Z,18.73
2023-01-17T10:48:12.878Z,16.55
2023-01-17T10:53:44.477Z,21.67
2023-01-17T10:58:48.237Z,19.35
2023-01-17T11:03:51.077Z,18.20
2023-01-17T11:09:03.079Z,19.98
2023-01-17T11:14:15.876Z,18.77
2023-01-17T11:19:27.746Z,21.05
2023-01-17T11:24:40.544Z,21.92
2023-01-17T11:29:42.717Z,19.45
2023-01-17T11:34:44.695Z,18.92
2023-01-17T11:39:49.812Z,15.38
2023-01-17T11:44:51.857Z,16.63
2023-01-17T11:49:55.293Z,14.43
2023-01-17T11:54:58.076Z,14.02
2023-01-17T12:00:24.631Z,14.45
2023-01-17T12:05:37.270Z,12.55
2023-01-17T12:10:52.294Z,10.98
2023-01-17T12:16:32.701Z,9.18
2023-01-17T12:22:06.184Z,7.15
2023-01-17T12:27:29.191Z,8.32
2023-01-17T12:32:57.789Z,10.85
2023-01-17T12:38:08.856Z,11.10
2023-01-17T12:48:36.362Z,14.05
2023-01-17T12:54:15.635Z,17.73
2023-01-17T12:59:58.183Z,7.55
2023-01-17T13:05:13.188Z,12.35
2023-01-17T13:10:26.544Z,6.78
2023-01-17T13:15:37.473Z,8.30
2023-01-17T13:25:48.647Z,7.13
2023-01-17T13:31:01.262Z,6.55
2023-01-17T13:36:14.603Z,8.27
2023-01-17T13:41:28.628Z,5.60
2023-01-17T13:46:31.840Z,5.90
2023-01-17T13:52:09.593Z,7.43
2023-01-17T13:57:29.373Z,5.53
2023-01-17T14:02:31.693Z,9.85
2023-01-17T14:07:39.515Z,5.97
2023-01-17T14:12:41.528Z,4.30
2023-01-17T14:17:51.774Z,4.35
2023-01-17T14:23:00.467Z,6.30
2023-01-17T14:28:07.822Z,8.05
2023-01-17T14:33:42.476Z,7.13
2023-01-17T14:38:44.633Z,5.70
2023-01-17T14:43:48.739Z,8.32
2023-01-17T14:49:02.671Z,6.22
2023-01-17T14:54:20.855Z,7.68
2023-01-17T14:59:23.027Z,9.18
2023-01-17T15:04:29.938Z,11.00
2023-01-17T15:09:37.074Z,7.60
2023-01-17T15:14:44.338Z,9.57
2023-01-17T15:19:51.271Z,8.95
2023-01-17T15:24:54.299Z,8.82
2023-01-17T15:30:01.716Z,11.32
2023-01-17T15:35:07.843Z,8.73
2023-01-17T15:40:19.963Z,7.82
2023-01-17T15:45:29.905Z,10.25
2023-01-17T15:50:32.186Z,9.00
2023-01-17T15:55:37.073Z,9.10
2023-01-17T16:00:40.408Z,10.85
2023-01-17T16:05:43.608Z,12.63
2023-01-17T16:10:45.873Z,18.48
2023-01-17T16:15:48.076Z,15.10
2023-01-17T16:20:58.286Z,21.05
2023-01-17T16:26:00.371Z,24.30
2023-01-17T16:31:02.739Z,16.92
2023-01-17T16:36:05.501Z,21.08
2023-01-17T16:41:07.719Z,14.40
2023-01-17T16:46:11.859Z,14.18
2023-01-17T16:51:13.966Z,17.63
2023-01-17T16:56:18.958Z,21.13
2023-01-17T17:01:22.549Z,20.35
2023-01-17T17:06:24.862Z,29.05
2023-01-17T17:11:27.023Z,52.40
2023-01-17T17:16:29.990Z,19.30
2023-01-17T17:21:33.770Z,14.73
2023-01-17T17:26:36.705Z,12.32
2023-01-17T17:31:42.589Z,15.05
2023-01-17T17:36:44.983Z,16.35
2023-01-17T17:41:47.283Z,15.80
2023-01-17T17:46:51.353Z,15.02
2023-01-17T17:51:53.559Z,16.55
2023-01-17T17:56:56.088Z,14.85
2023-01-17T18:01:59.718Z,16.38
2023-01-17T18:07:02.080Z,18.92
2023-01-17T18:12:04.514Z,14.38
2023-01-17T18:17:06.624Z,29.02
2023-01-17T18:22:08.650Z,32.38
2023-01-17T18:27:10.796Z,44.38
2023-01-17T18:32:13.107Z,37.72
2023-01-17T18:37:15.250Z,31.70
2023-01-17T18:42:18.421Z,25.15
2023-01-17T18:47:20.487Z,23.55
2023-01-17T18:52:22.627Z,19.58
2023-01-17T18:57:24.776Z,20.35
2023-01-17T19:02:26.875Z,28.75
2023-01-17T19:07:32.288Z,26.10
2023-01-17T19:12:34.342Z,23.90
2023-01-17T19:17:36.503Z,23.17
2023-01-17T19:22:39.527Z,29.88
2023-01-17T19:27:42.055Z,31.25
2023-01-17T19:32:44.177Z,34.80
2023-01-17T19:37:47.807Z,31.02
2023-01-17T19:42:49.783Z,29.88
2023-01-17T19:47:51.812Z,23.05
2023-01-17T19:52:53.984Z,21.75
2023-01-17T19:57:56.456Z,27.48
2023-01-17T20:03:08.408Z,34.96
2023-01-17T20:08:10.458Z,30.90
2023-01-17T20:13:12.488Z,33.22
2023-01-17T20:18:14.544Z,35.72
2023-01-17T20:23:16.628Z,31.42
2023-01-17T20:28:18.765Z,27.15
2023-01-17T20:33:21.868Z,34.72
2023-01-17T20:38:27.368Z,32.90
2023-01-17T20:43:30.214Z,27.23
2023-01-17T20:48:32.268Z,26.67
2023-01-17T20:53:35.094Z,27.30
2023-01-17T20:58:38.426Z,28.77
2023-01-17T21:03:40.485Z,25.33
2023-01-17T21:08:44.801Z,29.75
2023-01-17T21:13:48.688Z,27.08
2023-01-17T21:18:51.823Z,28.98
2023-01-17T21:23:55.611Z,26.13
2023-01-17T21:28:59.976Z,27.70
2023-01-17T21:34:10.711Z,27.67
2023-01-17T21:39:15.992Z,29.58
2023-01-17T21:44:21.011Z,25.15
2023-01-17T21:49:23.111Z,30.70
2023-01-17T21:54:45.862Z,27.00
2023-01-17T21:59:48.018Z,30.73
2023-01-17T22:04:50.186Z,28.15
2023-01-17T22:09:53.215Z,37.50
2023-01-17T22:14:55.238Z,35.78
2023-01-17T22:19:57.271Z,25.65
2023-01-17T22:24:59.263Z,26.50
2023-01-17T22:30:01.457Z,22.88
2023-01-17T22:35:06.729Z,24.83
2023-01-17T22:40:10.013Z,31.40
2023-01-17T22:45:12.796Z,29.52
2023-01-17T22:50:14.878Z,24.05
2023-01-17T22:55:18.238Z,28.23
2023-01-17T23:00:20.442Z,30.20
2023-01-17T23:05:23.260Z,20.92
2023-01-17T23:10:43.691Z,23.92
2023-01-17T23:16:04.223Z,21.10
2023-01-17T23:21:07.713Z,26.95
2023-01-17T23:26:09.846Z,22.80
2023-01-17T23:31:12.433Z,24.13
2023-01-17T23:36:14.483Z,25.58
2023-01-17T23:41:35.206Z,22.00
2023-01-17T23:46:37.243Z,21.23
2023-01-17T23:51:39.433Z,22.27
2023-01-17T23:56:41.621Z,24.33
